This is the latest recevied weather packets stored in our database for station/object GAPWX. If no packets are shown the sender has not sent any weather packets the latest 10 day(s).
| Time | Temp. | Humidity | Pressure | Rain* | Wind** | Luminosity | Snow |
|---|---|---|---|---|---|---|---|
| 1778103799 | 20° C | 34% | 1019.6 hPa | 0.25 mm | - | - | - |
| 1778098973 | 18.89° C | 36% | 1019.8 hPa | 0.25 mm | - | - | - |
| 1778098672 | 18.89° C | 34% | 1019.9 hPa | 0.25 mm | - | - | - |
| 1778098371 | 18.89° C | 35% | 1020 hPa | 0.25 mm | - | - | - |
| 1778097767 | 18.33° C | 36% | 1020 hPa | 0.25 mm | - | - | - |
| 1778095660 | 17.78° C | 35% | 1020.1 hPa | 0.25 mm | - | - | - |
| 1778095361 | 17.78° C | 39% | 1020.2 hPa | 0.25 mm | - | - | - |
| 1778089333 | 16.67° C | 48% | 1020 hPa | 0 mm | - | - | - |
| 1778089028 | 16.67° C | 47% | 1020 hPa | 0 mm | - | - | - |
| 1778086324 | 15.56° C | 52% | 1019.8 hPa | 0 mm | - | - | - |
| 1778085721 | 15.56° C | 55% | 1019.7 hPa | 0 mm | - | - | - |
| 1778085412 | 15.56° C | 56% | 1019.7 hPa | 0 mm | - | - | - |
| 1778085113 | 15.56° C | 58% | 1019.7 hPa | 0 mm | - | - | - |
| 1778084808 | 15° C | 62% | 1019.7 hPa | 0 mm | - | - | - |
| 1778084207 | 14.44° C | 62% | 1019.6 hPa | 0 mm | - | - | - |
| 1778078209 | 5° C | 78% | 1019.7 hPa | 0 mm | - | - | - |
| 1778077581 | 4.44° C | 77% | 1019.6 hPa | 0 mm | - | - | - |
| 1778077281 | 4.44° C | 77% | 1019.5 hPa | 0 mm | - | - | - |
| 1778076973 | 4.44° C | 77% | 1019.6 hPa | 0 mm | - | - | - |
| 1778076778 | 4.44° C | 77% | 1019.5 hPa | 0 mm | - | - | - |
| 1778075776 | 3.89° C | 77% | 1019.4 hPa | 0 mm | - | - | - |
| 1778075470 | 3.89° C | 77% | 1019.3 hPa | 0 mm | - | - | - |
| 1778075181 | 3.89° C | 76% | 1019.2 hPa | 0 mm | - | - | - |
| 1778074867 | 3.89° C | 77% | 1019.2 hPa | 0 mm | - | - | - |
| 1778073960 | 3.89° C | 76% | 1019 hPa | 0 mm | - | - | - |
* Rain since midnight (hover to see other rain measurements)
** Current wind speed in m/s (hover to see current wind gust speed)